Time,TemperatureF,DewpointF,PressureIn,WindDirection,WindDirectionDegrees,WindSpeedMPH,WindSpeedGustMPH,Humidity,HourlyPrecipIn,Conditions,Clouds,dailyrainin,SolarRadiationWatts/m^2,SoftwareType,DateUTC
2013-12-05 00:01:00,61.2,60.3,30.08,SE,134,0.0,2.0,97,0.00,,,0.00,0.0,meteohub,2013-12-05 05:01:00,
2013-12-05 00:03:00,61.2,60.3,30.08,SE,133,0.0,2.0,97,0.00,,,0.00,0.0,meteohub,2013-12-05 05:03:00,
2013-12-05 00:08:00,61.2,60.3,30.08,SE,134,0.0,2.0,97,0.00,,,0.00,0.0,meteohub,2013-12-05 05:08:00,
2013-12-05 00:13:00,61.2,60.3,30.08,SE,133,0.0,1.0,97,0.00,,,0.00,0.0,meteohub,2013-12-05 05:13:00,
2013-12-05 00:18:00,61.3,60.4,30.08,SE,134,0.0,1.0,97,0.00,,,0.00,0.0,meteohub,2013-12-05 05:18:00,
2013-12-05 00:23:00,61.5,60.6,30.08,SE,134,0.0,0.0,97,0.00,,,0.00,0.0,meteohub,2013-12-05 05:23:00,
2013-12-05 00:28:00,61.5,60.6,30.07,SE,134,0.0,0.0,97,0.00,,,0.00,0.0,meteohub,2013-12-05 05:28:00,
2013-12-05 00:33:00,61.5,60.6,30.07,SE,133,0.0,0.0,97,0.00,,,0.00,0.0,meteohub,2013-12-05 05:33:00,
2013-12-05 00:38:00,61.3,60.4,30.07,SE,134,0.0,1.0,97,0.00,,,0.00,0.0,meteohub,2013-12-05 05:38:00,
2013-12-05 00:43:00,61.0,60.1,30.07,SE,133,0.0,1.0,97,0.00,,,0.00,0.0,meteohub,2013-12-05 05:43:00,
2013-12-05 00:48:00,60.8,59.9,30.06,SE,134,0.0,1.0,97,0.00,,,0.00,0.0,meteohub,2013-12-05 05:48:00,
2013-12-05 00:53:00,60.6,59.7,30.07,SE,134,0.0,0.0,97,0.00,,,0.00,0.0,meteohub,2013-12-05 05:53:00,
2013-12-05 00:58:00,60.4,59.5,30.07,SE,133,0.0,0.0,97,0.00,,,0.00,0.0,meteohub,2013-12-05 05:58:00,
2013-12-05 01:03:00,60.3,59.4,30.07,SE,134,0.0,0.0,97,0.00,,,0.00,0.0,meteohub,2013-12-05 06:03:00,
2013-12-05 01:08:00,59.9,59.0,30.07,SE,134,0.0,0.0,97,0.00,,,0.00,0.0,meteohub,2013-12-05 06:08:00,
2013-12-05 01:13:00,59.7,58.8,30.07,SE,134,0.0,0.0,97,0.00,,,0.00,0.0,meteohub,2013-12-05 06:13:00,
2013-12-05 01:18:00,59.7,58.8,30.07,SE,133,0.0,0.0,97,0.00,,,0.00,0.0,meteohub,2013-12-05 06:18:00,
2013-12-05 01:23:00,59.7,58.8,30.07,SE,134,0.0,0.0,97,0.00,,,0.00,0.0,meteohub,2013-12-05 06:23:00,
2013-12-05 01:28:00,59.5,58.6,30.07,SE,134,0.0,0.0,97,0.00,,,0.00,0.0,meteohub,2013-12-05 06:28:00,
2013-12-05 01:33:00,59.4,58.5,30.07,SE,133,0.0,0.0,97,0.00,,,0.00,0.0,meteohub,2013-12-05 06:33:00,
2013-12-05 01:38:00,59.0,58.1,30.07,SE,133,0.0,0.0,97,0.00,,,0.00,0.0,meteohub,2013-12-05 06:38:00,
2013-12-05 01:43:00,59.0,58.1,30.07,SE,134,0.0,0.0,97,0.00,,,0.00,0.0,meteohub,2013-12-05 06:43:00,
2013-12-05 01:48:00,59.0,58.1,30.07,SE,134,0.0,0.0,97,0.00,,,0.00,0.0,meteohub,2013-12-05 06:48:00,
2013-12-05 01:53:00,58.8,57.9,30.07,SE,134,0.0,0.0,97,0.00,,,0.00,0.0,meteohub,2013-12-05 06:53:00,
2013-12-05 01:58:00,58.8,57.9,30.07,SE,133,0.0,0.0,97,0.00,,,0.00,0.0,meteohub,2013-12-05 06:58:00,
2013-12-05 02:03:00,58.6,57.7,30.07,SE,133,0.0,0.0,97,0.00,,,0.00,0.0,meteohub,2013-12-05 07:03:00,
2013-12-05 02:08:00,58.6,57.7,30.07,SE,134,0.0,0.0,97,0.00,,,0.00,0.0,meteohub,2013-12-05 07:08:00,
2013-12-05 02:13:00,58.6,57.7,30.07,SE,133,0.0,0.0,97,0.00,,,0.00,0.0,meteohub,2013-12-05 07:13:00,
2013-12-05 02:18:00,58.5,57.6,30.07,SE,134,0.0,0.0,97,0.00,,,0.00,0.0,meteohub,2013-12-05 07:18:00,
2013-12-05 02:23:00,58.3,57.4,30.07,SE,133,0.0,0.0,97,0.00,,,0.00,0.0,meteohub,2013-12-05 07:23:00,
2013-12-05 02:28:00,58.3,57.4,30.06,SE,134,0.0,0.0,97,0.00,,,0.00,0.0,meteohub,2013-12-05 07:28:00,
2013-12-05 02:33:00,58.1,57.2,30.07,SE,134,0.0,0.0,97,0.00,,,0.00,0.0,meteohub,2013-12-05 07:33:00,
2013-12-05 02:38:00,57.9,57.0,30.07,SE,134,0.0,0.0,97,0.00,,,0.00,0.0,meteohub,2013-12-05 07:38:00,
2013-12-05 02:43:00,57.7,56.8,30.07,SE,133,0.0,0.0,97,0.00,,,0.00,0.0,meteohub,2013-12-05 07:43:00,
2013-12-05 02:49:00,57.6,56.7,30.07,SE,133,0.0,0.0,97,0.00,,,0.00,0.0,meteohub,2013-12-05 07:49:00,
2013-12-05 02:54:00,57.4,56.5,30.07,SE,134,0.0,0.0,97,0.00,,,0.00,0.0,meteohub,2013-12-05 07:54:00,
2013-12-05 02:59:00,57.4,56.5,30.07,SE,134,0.0,0.0,97,0.00,,,0.00,0.0,meteohub,2013-12-05 07:59:00,
2013-12-05 03:04:00,57.2,56.3,30.07,SE,134,0.0,0.0,97,0.00,,,0.00,0.0,meteohub,2013-12-05 08:04:00,
2013-12-05 03:09:00,57.0,56.1,30.07,SE,134,0.0,0.0,97,0.00,,,0.00,0.0,meteohub,2013-12-05 08:09:00,
2013-12-05 03:14:00,56.8,55.9,30.07,SE,134,0.0,0.0,97,0.00,,,0.00,0.0,meteohub,2013-12-05 08:14:00,
2013-12-05 03:19:00,56.8,55.9,30.07,SE,133,0.0,0.0,97,0.00,,,0.00,0.0,meteohub,2013-12-05 08:19:00,
2013-12-05 03:24:00,56.8,55.9,30.07,SE,134,0.0,0.0,97,0.00,,,0.00,0.0,meteohub,2013-12-05 08:24:00,
2013-12-05 03:29:00,57.0,56.5,30.07,SE,134,0.0,0.0,98,0.00,,,0.00,0.0,meteohub,2013-12-05 08:29:00,
2013-12-05 03:34:00,57.2,56.7,30.07,SE,134,0.0,0.0,98,0.00,,,0.00,0.0,meteohub,2013-12-05 08:34:00,
2013-12-05 03:39:00,57.2,56.7,30.08,SE,134,0.0,0.0,98,0.00,,,0.00,0.0,meteohub,2013-12-05 08:39:00,
2013-12-05 03:44:00,57.0,56.5,30.08,SE,133,0.0,0.0,98,0.00,,,0.00,0.0,meteohub,2013-12-05 08:44:00,
2013-12-05 03:49:00,56.8,55.9,30.08,SE,133,0.0,0.0,97,0.00,,,0.00,0.0,meteohub,2013-12-05 08:49:00,
2013-12-05 03:54:00,56.8,55.9,30.08,SE,134,0.0,0.0,97,0.00,,,0.00,0.0,meteohub,2013-12-05 08:54:00,
2013-12-05 03:59:00,56.7,55.8,30.08,SE,133,0.0,0.0,97,0.00,,,0.00,0.0,meteohub,2013-12-05 08:59:00,
2013-12-05 04:04:00,56.8,55.9,30.08,SE,133,0.0,0.0,97,0.00,,,0.00,0.0,meteohub,2013-12-05 09:04:00,
2013-12-05 04:09:00,56.8,55.9,30.08,SE,134,0.0,0.0,97,0.00,,,0.00,0.0,meteohub,2013-12-05 09:09:00,
2013-12-05 04:14:00,56.8,55.9,30.08,SE,133,0.0,0.0,97,0.00,,,0.00,0.0,meteohub,2013-12-05 09:14:00,
2013-12-05 04:19:00,56.7,55.8,30.08,SE,134,0.0,0.0,97,0.00,,,0.00,0.0,meteohub,2013-12-05 09:19:00,
2013-12-05 04:24:00,56.7,56.1,30.08,SE,134,0.0,0.0,98,0.00,,,0.00,0.0,meteohub,2013-12-05 09:24:00,
2013-12-05 04:29:00,56.7,56.1,30.08,SE,134,0.0,0.0,98,0.00,,,0.00,0.0,meteohub,2013-12-05 09:29:00,
2013-12-05 04:34:00,56.7,56.1,30.08,SE,133,0.0,0.0,98,0.00,,,0.00,0.0,meteohub,2013-12-05 09:34:00,
2013-12-05 04:39:00,56.5,55.9,30.08,SE,133,0.0,0.0,98,0.00,,,0.00,0.0,meteohub,2013-12-05 09:39:00,
2013-12-05 04:44:00,56.5,55.6,30.08,SE,134,0.0,0.0,97,0.00,,,0.00,0.0,meteohub,2013-12-05 09:44:00,
2013-12-05 04:49:00,56.5,55.6,30.08,SE,133,0.0,0.0,97,0.00,,,0.00,0.0,meteohub,2013-12-05 09:49:00,
2013-12-05 04:54:00,56.5,55.6,30.08,SE,134,0.0,0.0,97,0.00,,,0.00,0.0,meteohub,2013-12-05 09:54:00,
2013-12-05 04:59:00,56.5,55.9,30.08,SE,134,0.0,0.0,98,0.00,,,0.00,0.0,meteohub,2013-12-05 09:59:00,
2013-12-05 05:04:00,56.7,56.1,30.08,SE,134,0.0,0.0,98,0.00,,,0.00,0.0,meteohub,2013-12-05 10:04:00,
2013-12-05 05:09:00,56.7,56.1,30.08,SE,134,0.0,0.0,98,0.00,,,0.00,0.0,meteohub,2013-12-05 10:09:00,
2013-12-05 05:14:00,56.7,56.1,30.08,SE,134,0.0,0.0,98,0.00,,,0.00,0.0,meteohub,2013-12-05 10:14:00,
2013-12-05 05:19:00,56.5,55.9,30.08,SE,133,0.0,0.0,98,0.00,,,0.00,0.0,meteohub,2013-12-05 10:19:00,
2013-12-05 05:24:00,56.5,55.6,30.08,SE,133,0.0,0.0,97,0.00,,,0.00,0.0,meteohub,2013-12-05 10:24:00,
2013-12-05 05:29:00,56.7,56.1,30.08,SE,134,0.0,0.0,98,0.00,,,0.00,0.0,meteohub,2013-12-05 10:29:00,
2013-12-05 05:34:00,57.4,56.8,30.08,SE,134,0.0,0.0,98,0.00,,,0.00,0.0,meteohub,2013-12-05 10:34:00,
2013-12-05 05:39:00,57.0,56.5,30.08,SE,133,0.0,1.0,98,0.00,,,0.00,0.0,meteohub,2013-12-05 10:39:00,
2013-12-05 05:44:00,56.8,56.3,30.08,SE,134,0.0,1.0,98,0.00,,,0.00,0.0,meteohub,2013-12-05 10:44:00,
2013-12-05 05:49:00,56.7,56.1,30.09,SE,134,0.0,1.0,98,0.00,,,0.00,0.0,meteohub,2013-12-05 10:49:00,
2013-12-05 05:54:00,56.5,55.9,30.09,SE,134,0.0,0.0,98,0.00,,,0.00,0.0,meteohub,2013-12-05 10:54:00,
2013-12-05 05:59:00,56.5,55.9,30.09,SE,134,0.0,0.0,98,0.00,,,0.00,0.0,meteohub,2013-12-05 10:59:00,
2013-12-05 06:04:00,56.7,56.1,30.09,SE,133,0.0,0.0,98,0.00,,,0.00,0.0,meteohub,2013-12-05 11:04:00,
2013-12-05 06:09:00,56.8,56.3,30.10,SE,134,0.0,0.0,98,0.00,,,0.00,0.0,meteohub,2013-12-05 11:09:00,
2013-12-05 06:14:00,56.8,56.3,30.10,SE,134,0.0,0.0,98,0.00,,,0.00,0.0,meteohub,2013-12-05 11:14:00,
2013-12-05 06:20:00,56.7,56.1,30.10,SE,133,0.0,0.0,98,0.00,,,0.00,0.0,meteohub,2013-12-05 11:20:00,
2013-12-05 06:25:00,56.7,56.1,30.10,SE,133,0.0,0.0,98,0.00,,,0.00,0.0,meteohub,2013-12-05 11:25:00,
2013-12-05 06:29:00,56.7,56.1,30.10,SE,134,0.0,0.0,98,0.00,,,0.00,0.0,meteohub,2013-12-05 11:29:00,
2013-12-05 06:34:00,56.7,56.1,30.11,SE,134,0.0,0.0,98,0.00,,,0.00,0.0,meteohub,2013-12-05 11:34:00,
2013-12-05 06:39:00,56.5,55.9,30.10,SE,134,0.0,0.0,98,0.00,,,0.00,0.0,meteohub,2013-12-05 11:39:00,
2013-12-05 06:44:00,56.5,55.9,30.10,SE,134,0.0,0.0,98,0.00,,,0.00,0.0,meteohub,2013-12-05 11:44:00,
2013-12-05 06:49:00,56.5,55.9,30.10,SE,133,0.0,0.0,98,0.00,,,0.00,0.0,meteohub,2013-12-05 11:49:00,
2013-12-05 06:54:00,56.7,56.1,30.10,SE,133,0.0,0.0,98,0.00,,,0.00,0.0,meteohub,2013-12-05 11:54:00,
2013-12-05 07:00:00,56.5,55.9,30.11,SE,134,0.0,0.0,98,0.00,,,0.00,0.0,meteohub,2013-12-05 12:00:00,
2013-12-05 07:05:00,56.5,55.9,30.10,SE,134,0.0,0.0,98,0.00,,,0.00,5.0,meteohub,2013-12-05 12:05:00,
2013-12-05 07:10:00,56.5,55.9,30.11,SE,134,0.0,0.0,98,0.00,,,0.00,11.0,meteohub,2013-12-05 12:10:00,
2013-12-05 07:15:00,56.7,56.1,30.11,SE,134,0.0,0.0,98,0.00,,,0.00,14.0,meteohub,2013-12-05 12:15:00,
2013-12-05 07:20:00,56.8,56.3,30.11,SE,134,0.0,0.0,98,0.00,,,0.00,18.0,meteohub,2013-12-05 12:20:00,
2013-12-05 07:25:00,57.0,56.5,30.11,SE,134,0.0,0.0,98,0.00,,,0.00,21.0,meteohub,2013-12-05 12:25:00,
2013-12-05 07:30:00,57.2,56.7,30.11,SE,134,0.0,0.0,98,0.00,,,0.00,28.0,meteohub,2013-12-05 12:30:00,
2013-12-05 07:35:00,57.4,56.8,30.11,SE,133,0.0,0.0,98,0.00,,,0.00,35.0,meteohub,2013-12-05 12:35:00,
2013-12-05 07:39:00,58.1,57.6,30.11,SE,134,0.0,0.0,98,0.00,,,0.00,42.0,meteohub,2013-12-05 12:39:00,
2013-12-05 07:44:00,58.5,57.9,30.11,SE,134,0.0,2.0,98,0.00,,,0.00,51.0,meteohub,2013-12-05 12:44:00,
2013-12-05 07:49:00,59.0,58.5,30.11,SE,134,0.0,2.0,98,0.00,,,0.00,56.0,meteohub,2013-12-05 12:49:00,
2013-12-05 07:54:00,59.5,59.0,30.12,SE,134,0.0,2.0,98,0.00,,,0.00,67.0,meteohub,2013-12-05 12:54:00,
2013-12-05 07:59:00,60.3,59.7,30.12,SE,133,1.0,1.0,98,0.00,,,0.00,81.0,meteohub,2013-12-05 12:59:00,
2013-12-05 08:04:00,61.0,60.4,30.12,SE,134,0.0,2.0,98,0.00,,,0.00,97.0,meteohub,2013-12-05 13:04:00,
2013-12-05 08:09:00,61.5,61.0,30.12,SE,133,0.0,2.0,98,0.00,,,0.00,123.0,meteohub,2013-12-05 13:09:00,
2013-12-05 08:14:00,62.1,61.5,30.12,SE,133,0.0,2.0,98,0.00,,,0.00,160.0,meteohub,2013-12-05 13:14:00,
2013-12-05 08:20:00,62.6,62.1,30.12,SE,134,0.0,0.0,98,0.00,,,0.00,141.0,meteohub,2013-12-05 13:20:00,
2013-12-05 08:24:00,63.0,62.4,30.12,SE,134,0.0,0.0,98,0.00,,,0.00,100.0,meteohub,2013-12-05 13:24:00,
2013-12-05 08:29:00,63.0,62.4,30.12,SE,134,0.0,1.0,98,0.00,,,0.00,188.0,meteohub,2013-12-05 13:29:00,
2013-12-05 08:34:00,63.3,62.8,30.13,SE,133,0.0,1.0,98,0.00,,,0.00,230.0,meteohub,2013-12-05 13:34:00,
2013-12-05 08:39:00,64.0,63.5,30.13,SE,133,0.0,1.0,98,0.00,,,0.00,250.0,meteohub,2013-12-05 13:39:00,
2013-12-05 08:44:00,64.6,64.0,30.13,SE,134,0.0,0.0,98,0.00,,,0.00,188.0,meteohub,2013-12-05 13:44:00,
2013-12-05 08:49:00,64.9,64.4,30.13,SE,134,0.0,0.0,98,0.00,,,0.00,137.0,meteohub,2013-12-05 13:49:00,
2013-12-05 08:54:00,64.9,64.4,30.13,SE,134,0.0,0.0,98,0.00,,,0.00,214.0,meteohub,2013-12-05 13:54:00,
2013-12-05 08:59:00,65.1,64.6,30.13,SE,134,0.0,1.0,98,0.00,,,0.00,214.0,meteohub,2013-12-05 13:59:00,
2013-12-05 09:05:00,65.8,65.3,30.14,SE,133,0.0,1.0,98,0.00,,,0.00,304.0,meteohub,2013-12-05 14:05:00,
2013-12-05 09:10:00,66.4,65.8,30.14,SE,134,0.0,1.0,98,0.00,,,0.00,281.0,meteohub,2013-12-05 14:10:00,
2013-12-05 09:15:00,66.7,66.2,30.14,SE,133,0.0,0.0,98,0.00,,,0.00,322.0,meteohub,2013-12-05 14:15:00,
2013-12-05 09:20:00,66.9,66.4,30.14,SE,133,0.0,0.0,98,0.00,,,0.00,325.0,meteohub,2013-12-05 14:20:00,
2013-12-05 09:25:00,67.5,66.9,30.14,SE,134,0.0,0.0,98,0.00,,,0.00,355.0,meteohub,2013-12-05 14:25:00,
2013-12-05 09:30:00,68.2,67.6,30.14,SE,134,1.0,2.0,98,0.00,,,0.00,397.0,meteohub,2013-12-05 14:30:00,
2013-12-05 09:35:00,68.7,68.2,30.14,SSW,205,0.0,4.0,98,0.00,,,0.00,348.0,meteohub,2013-12-05 14:35:00,
2013-12-05 09:40:00,69.6,68.7,30.14,SE,138,0.0,4.0,97,0.00,,,0.00,357.0,meteohub,2013-12-05 14:40:00,
2013-12-05 09:45:00,70.3,68.9,30.14,SSE,158,1.0,4.0,95,0.00,,,0.00,450.0,meteohub,2013-12-05 14:45:00,
2013-12-05 09:50:00,71.2,68.2,30.13,SSW,205,6.0,6.0,90,0.00,,,0.00,369.0,meteohub,2013-12-05 14:50:00,
2013-12-05 09:55:00,72.1,67.6,30.13,SSE,149,0.0,7.0,86,0.00,,,0.00,401.0,meteohub,2013-12-05 14:55:00,
2013-12-05 10:01:00,72.9,68.0,30.13,SSE,167,0.0,7.0,85,0.00,,,0.00,487.0,meteohub,2013-12-05 15:01:00,
2013-12-05 10:06:00,73.8,68.0,30.14,South,177,0.0,6.0,82,0.00,,,0.00,429.0,meteohub,2013-12-05 15:06:00,
2013-12-05 10:11:00,74.7,67.6,30.14,South,173,0.0,5.0,79,0.00,,,0.00,594.0,meteohub,2013-12-05 15:11:00,
2013-12-05 10:16:00,75.2,67.5,30.13,ESE,117,1.0,5.0,77,0.00,,,0.00,621.0,meteohub,2013-12-05 15:16:00,
2013-12-05 10:21:00,75.7,67.6,30.13,SSE,163,5.0,8.0,76,0.00,,,0.00,673.0,meteohub,2013-12-05 15:21:00,
2013-12-05 10:26:00,75.7,66.9,30.13,SSW,202,1.0,8.0,74,0.00,,,0.00,255.0,meteohub,2013-12-05 15:26:00,
2013-12-05 10:31:00,75.6,66.7,30.13,South,175,0.0,8.0,74,0.00,,,0.00,343.0,meteohub,2013-12-05 15:31:00,
2013-12-05 10:36:00,75.6,67.1,30.13,SSW,198,1.0,8.0,75,0.00,,,0.00,271.0,meteohub,2013-12-05 15:36:00,
2013-12-05 10:41:00,75.7,66.4,30.14,South,182,2.0,7.0,73,0.00,,,0.00,255.0,meteohub,2013-12-05 15:41:00,
2013-12-05 10:46:00,76.3,66.9,30.14,WNW,287,0.0,7.0,73,0.00,,,0.00,255.0,meteohub,2013-12-05 15:46:00,
2013-12-05 10:51:00,76.6,67.3,30.14,South,190,0.0,7.0,73,0.00,,,0.00,557.0,meteohub,2013-12-05 15:51:00,
2013-12-05 10:56:00,77.0,66.9,30.13,SSE,150,1.0,7.0,71,0.00,,,0.00,649.0,meteohub,2013-12-05 15:56:00,
2013-12-05 11:01:00,77.0,66.4,30.13,SSW,213,6.0,11.0,70,0.00,,,0.00,406.0,meteohub,2013-12-05 16:01:00,
2013-12-05 11:06:00,77.0,66.9,30.13,SW,223,0.0,11.0,71,0.00,,,0.00,294.0,meteohub,2013-12-05 16:06:00,
2013-12-05 11:11:00,76.8,66.7,30.13,South,176,0.0,8.0,71,0.00,,,0.00,255.0,meteohub,2013-12-05 16:11:00,
2013-12-05 11:16:00,77.0,66.4,30.13,SW,218,2.0,8.0,70,0.00,,,0.00,580.0,meteohub,2013-12-05 16:16:00,
2013-12-05 11:21:00,77.5,66.6,30.12,West,263,3.0,7.0,69,0.00,,,0.00,575.0,meteohub,2013-12-05 16:21:00,
2013-12-05 11:26:00,78.1,67.1,30.12,SSE,165,3.0,12.0,69,0.00,,,0.00,575.0,meteohub,2013-12-05 16:26:00,
2013-12-05 11:31:00,78.4,67.5,30.12,SW,223,6.0,12.0,69,0.00,,,0.00,580.0,meteohub,2013-12-05 16:31:00,
2013-12-05 11:36:00,78.4,67.5,30.12,SW,232,0.0,12.0,69,0.00,,,0.00,568.0,meteohub,2013-12-05 16:36:00,
2013-12-05 11:41:00,78.6,67.6,30.12,SSW,207,0.0,7.0,69,0.00,,,0.00,552.0,meteohub,2013-12-05 16:41:00,
2013-12-05 11:46:00,79.2,67.6,30.11,South,173,6.0,7.0,68,0.00,,,0.00,540.0,meteohub,2013-12-05 16:46:00,
2013-12-05 11:51:00,79.5,68.0,30.11,SW,223,8.0,8.0,68,0.00,,,0.00,548.0,meteohub,2013-12-05 16:51:00,
2013-12-05 11:56:00,79.5,67.6,30.11,SW,230,0.0,8.0,67,0.00,,,0.00,571.0,meteohub,2013-12-05 16:56:00,
2013-12-05 12:01:00,79.9,68.0,30.11,WSW,244,1.0,8.0,67,0.00,,,0.00,605.0,meteohub,2013-12-05 17:01:00,
2013-12-05 12:06:00,79.5,67.6,30.11,ESE,111,0.0,13.0,67,0.00,,,0.00,608.0,meteohub,2013-12-05 17:06:00,
2013-12-05 12:11:00,79.5,67.6,30.11,SSW,205,1.0,13.0,67,0.00,,,0.00,615.0,meteohub,2013-12-05 17:11:00,
2013-12-05 12:16:00,79.9,68.0,30.11,SSW,205,2.0,13.0,67,0.00,,,0.00,550.0,meteohub,2013-12-05 17:16:00,
2013-12-05 12:21:00,80.1,67.6,30.10,SSE,159,1.0,9.0,66,0.00,,,0.00,700.0,meteohub,2013-12-05 17:21:00,
2013-12-05 12:26:00,80.4,68.5,30.10,ESE,110,4.0,8.0,67,0.00,,,0.00,605.0,meteohub,2013-12-05 17:26:00,
2013-12-05 12:31:00,80.4,67.6,30.10,SE,136,2.0,8.0,65,0.00,,,0.00,589.0,meteohub,2013-12-05 17:31:00,
2013-12-05 12:36:00,80.4,67.6,30.09,South,172,1.0,7.0,65,0.00,,,0.00,592.0,meteohub,2013-12-05 17:36:00,
2013-12-05 12:41:00,80.8,68.4,30.09,SSE,164,0.0,8.0,66,0.00,,,0.00,585.0,meteohub,2013-12-05 17:41:00,
2013-12-05 12:46:00,81.1,68.7,30.09,ESE,111,1.0,8.0,66,0.00,,,0.00,267.0,meteohub,2013-12-05 17:46:00,
2013-12-05 12:51:00,81.3,68.4,30.09,South,184,0.0,8.0,65,0.00,,,0.00,494.0,meteohub,2013-12-05 17:51:00,
2013-12-05 12:56:00,81.3,68.4,30.09,SSE,167,0.0,7.0,65,0.00,,,0.00,524.0,meteohub,2013-12-05 17:56:00,
2013-12-05 13:01:00,81.1,68.2,30.08,ESE,121,2.0,7.0,65,0.00,,,0.00,531.0,meteohub,2013-12-05 18:01:00,
2013-12-05 13:06:00,80.8,68.0,30.08,SE,141,2.0,7.0,65,0.00,,,0.00,383.0,meteohub,2013-12-05 18:06:00,
2013-12-05 13:11:00,80.8,68.4,30.08,SSE,149,1.0,9.0,66,0.00,,,0.00,575.0,meteohub,2013-12-05 18:11:00,
2013-12-05 13:16:00,80.8,68.4,30.08,SSE,148,2.0,9.0,66,0.00,,,0.00,550.0,meteohub,2013-12-05 18:16:00,
2013-12-05 13:21:00,81.1,68.2,30.08,SSE,155,7.0,7.0,65,0.00,,,0.00,520.0,meteohub,2013-12-05 18:21:00,
2013-12-05 13:26:00,81.1,68.7,30.07,SSW,196,2.0,8.0,66,0.00,,,0.00,482.0,meteohub,2013-12-05 18:26:00,
2013-12-05 13:31:00,81.3,68.4,30.07,ESE,112,3.0,8.0,65,0.00,,,0.00,492.0,meteohub,2013-12-05 18:31:00,
2013-12-05 13:36:00,81.3,68.4,30.07,SSW,192,8.0,8.0,65,0.00,,,0.00,506.0,meteohub,2013-12-05 18:36:00,
2013-12-05 13:41:00,81.7,68.7,30.06,SE,140,0.0,8.0,65,0.00,,,0.00,508.0,meteohub,2013-12-05 18:41:00,
2013-12-05 13:46:00,81.9,68.9,30.06,South,182,0.0,8.0,65,0.00,,,0.00,512.0,meteohub,2013-12-05 18:46:00,
2013-12-05 13:51:00,82.0,68.7,30.06,SE,142,0.0,8.0,64,0.00,,,0.00,494.0,meteohub,2013-12-05 18:51:00,
2013-12-05 13:56:00,82.0,68.7,30.06,SSE,150,0.0,5.0,64,0.00,,,0.00,454.0,meteohub,2013-12-05 18:56:00,
2013-12-05 14:01:00,82.0,68.7,30.06,SSW,203,0.0,5.0,64,0.00,,,0.00,424.0,meteohub,2013-12-05 19:01:00,
2013-12-05 14:06:00,82.2,69.8,30.06,SSE,156,2.0,5.0,66,0.00,,,0.00,422.0,meteohub,2013-12-05 19:06:00,
2013-12-05 14:11:00,82.0,69.6,30.06,ESE,103,2.0,7.0,66,0.00,,,0.00,403.0,meteohub,2013-12-05 19:11:00,
2013-12-05 14:16:00,81.7,69.3,30.05,SE,128,3.0,7.0,66,0.00,,,0.00,374.0,meteohub,2013-12-05 19:16:00,
2013-12-05 14:21:00,81.1,69.1,30.05,SE,132,0.0,8.0,67,0.00,,,0.00,378.0,meteohub,2013-12-05 19:21:00,
2013-12-05 14:26:00,81.0,69.4,30.05,SE,127,0.0,8.0,68,0.00,,,0.00,374.0,meteohub,2013-12-05 19:26:00,
2013-12-05 14:31:00,80.8,69.6,30.05,SSE,161,4.0,8.0,69,0.00,,,0.00,388.0,meteohub,2013-12-05 19:31:00,
2013-12-05 14:36:00,80.4,69.3,30.05,SE,129,1.0,8.0,69,0.00,,,0.00,380.0,meteohub,2013-12-05 19:36:00,
2013-12-05 14:41:00,80.2,69.1,30.05,South,173,0.0,8.0,69,0.00,,,0.00,357.0,meteohub,2013-12-05 19:41:00,
2013-12-05 14:46:00,80.2,69.1,30.05,ESE,114,1.0,8.0,69,0.00,,,0.00,97.0,meteohub,2013-12-05 19:46:00,
2013-12-05 14:51:00,80.1,68.9,30.05,SE,127,2.0,8.0,69,0.00,,,0.00,274.0,meteohub,2013-12-05 19:51:00,
2013-12-05 14:56:00,80.1,69.4,30.05,SE,131,0.0,8.0,70,0.00,,,0.00,308.0,meteohub,2013-12-05 19:56:00,
2013-12-05 15:01:00,80.1,68.9,30.05,SSE,167,2.0,6.0,69,0.00,,,0.00,188.0,meteohub,2013-12-05 20:01:00,
2013-12-05 15:05:00,79.5,68.9,30.04,East,99,0.0,10.0,70,0.00,,,0.00,167.0,meteohub,2013-12-05 20:05:00,
2013-12-05 15:10:00,79.5,68.9,30.04,SSE,155,0.0,10.0,70,0.00,,,0.00,174.0,meteohub,2013-12-05 20:10:00,
2013-12-05 15:16:00,79.3,68.7,30.04,SE,129,0.0,10.0,70,0.00,,,0.00,62.0,meteohub,2013-12-05 20:16:00,
2013-12-05 15:21:00,79.3,69.1,30.04,SSE,161,2.0,7.0,71,0.00,,,0.00,77.0,meteohub,2013-12-05 20:21:00,
2013-12-05 15:26:00,79.2,68.5,30.04,SE,132,2.0,7.0,70,0.00,,,0.00,86.0,meteohub,2013-12-05 20:26:00,
2013-12-05 15:31:00,79.2,68.9,30.04,SSE,153,0.0,10.0,71,0.00,,,0.00,134.0,meteohub,2013-12-05 20:31:00,
2013-12-05 15:36:00,79.2,68.5,30.04,SE,137,4.0,10.0,70,0.00,,,0.00,114.0,meteohub,2013-12-05 20:36:00,
2013-12-05 15:41:00,79.0,68.7,30.04,SE,136,0.0,7.0,71,0.00,,,0.00,86.0,meteohub,2013-12-05 20:41:00,
2013-12-05 15:46:00,78.6,68.9,30.04,ESE,110,0.0,7.0,72,0.00,,,0.00,120.0,meteohub,2013-12-05 20:46:00,
2013-12-05 15:51:00,78.4,69.1,30.04,ESE,106,0.0,7.0,73,0.00,,,0.00,88.0,meteohub,2013-12-05 20:51:00,
2013-12-05 15:56:00,78.3,68.9,30.04,SE,129,1.0,5.0,73,0.00,,,0.00,77.0,meteohub,2013-12-05 20:56:00,
2013-12-05 16:01:00,78.3,68.9,30.04,SSE,157,0.0,5.0,73,0.00,,,0.00,86.0,meteohub,2013-12-05 21:01:00,
2013-12-05 16:06:00,78.3,69.3,30.04,SSE,167,1.0,5.0,74,0.00,,,0.00,77.0,meteohub,2013-12-05 21:06:00,
2013-12-05 16:11:00,77.9,68.9,30.05,South,173,2.0,5.0,74,0.00,,,0.00,67.0,meteohub,2013-12-05 21:11:00,
2013-12-05 16:16:00,77.5,68.5,30.05,SSE,160,0.0,8.0,74,0.00,,,0.00,74.0,meteohub,2013-12-05 21:16:00,
2013-12-05 16:21:00,77.4,68.9,30.05,SSE,164,1.0,8.0,75,0.00,,,0.00,49.0,meteohub,2013-12-05 21:21:00,
2013-12-05 16:26:00,76.8,68.4,30.05,SSE,161,0.0,8.0,75,0.00,,,0.00,44.0,meteohub,2013-12-05 21:26:00,
2013-12-05 16:31:00,76.5,68.4,30.05,South,173,0.0,4.0,76,0.00,,,0.00,35.0,meteohub,2013-12-05 21:31:00,
2013-12-05 16:36:00,75.9,67.8,30.05,ENE,75,0.0,4.0,76,0.00,,,0.00,30.0,meteohub,2013-12-05 21:36:00,
2013-12-05 16:41:00,75.7,68.0,30.05,SE,145,0.0,4.0,77,0.00,,,0.00,28.0,meteohub,2013-12-05 21:41:00,
2013-12-05 16:46:00,75.4,68.0,30.05,ESE,114,0.0,4.0,78,0.00,,,0.00,25.0,meteohub,2013-12-05 21:46:00,
2013-12-05 16:51:00,74.8,67.5,30.06,ESE,123,0.0,4.0,78,0.00,,,0.00,23.0,meteohub,2013-12-05 21:51:00,
2013-12-05 16:56:00,74.5,67.5,30.06,ESE,117,4.0,4.0,79,0.00,,,0.00,19.0,meteohub,2013-12-05 21:56:00,
2013-12-05 17:01:00,73.9,67.1,30.06,SE,134,0.0,4.0,79,0.00,,,0.00,16.0,meteohub,2013-12-05 22:01:00,
2013-12-05 17:06:00,73.2,66.7,30.06,SE,134,0.0,5.0,80,0.00,,,0.00,12.0,meteohub,2013-12-05 22:06:00,
2013-12-05 17:11:00,72.9,66.7,30.06,ESE,114,0.0,5.0,81,0.00,,,0.00,9.0,meteohub,2013-12-05 22:11:00,
2013-12-05 17:16:00,72.1,66.4,30.06,ESE,111,0.0,4.0,82,0.00,,,0.00,5.0,meteohub,2013-12-05 22:16:00,
2013-12-05 17:21:00,71.8,66.0,30.06,ESE,111,0.0,4.0,82,0.00,,,0.00,0.0,meteohub,2013-12-05 22:21:00,
2013-12-05 17:26:00,71.4,66.0,30.07,SE,134,0.0,4.0,83,0.00,,,0.00,0.0,meteohub,2013-12-05 22:26:00,
2013-12-05 17:31:00,71.1,65.7,30.07,SE,134,0.0,2.0,83,0.00,,,0.00,0.0,meteohub,2013-12-05 22:31:00,
2013-12-05 17:36:00,70.3,64.9,30.07,SE,130,1.0,2.0,83,0.00,,,0.00,0.0,meteohub,2013-12-05 22:36:00,
2013-12-05 17:41:00,70.0,64.9,30.07,ESE,108,0.0,4.0,84,0.00,,,0.00,0.0,meteohub,2013-12-05 22:41:00,
2013-12-05 17:46:00,69.6,64.9,30.07,ESE,114,0.0,5.0,85,0.00,,,0.00,0.0,meteohub,2013-12-05 22:46:00,
2013-12-05 17:51:00,69.4,64.8,30.07,ESE,110,0.0,5.0,85,0.00,,,0.00,0.0,meteohub,2013-12-05 22:51:00,
2013-12-05 17:56:00,69.3,64.6,30.07,SSE,162,0.0,3.0,85,0.00,,,0.00,0.0,meteohub,2013-12-05 22:56:00,
2013-12-05 18:01:00,69.1,64.4,30.07,SSE,148,0.0,5.0,85,0.00,,,0.00,0.0,meteohub,2013-12-05 23:01:00,
2013-12-05 18:06:00,68.9,64.6,30.08,SE,137,0.0,5.0,86,0.00,,,0.00,0.0,meteohub,2013-12-05 23:06:00,
2013-12-05 18:11:00,68.7,64.4,30.08,ESE,116,0.0,5.0,86,0.00,,,0.00,0.0,meteohub,2013-12-05 23:11:00,
2013-12-05 18:16:00,68.7,64.4,30.08,ESE,116,0.0,5.0,86,0.00,,,0.00,0.0,meteohub,2013-12-05 23:16:00,
2013-12-05 18:21:00,68.5,64.2,30.08,ESE,115,0.0,5.0,86,0.00,,,0.00,0.0,meteohub,2013-12-05 23:21:00,
2013-12-05 18:26:00,68.4,64.0,30.08,ESE,116,0.0,5.0,86,0.00,,,0.00,0.0,meteohub,2013-12-05 23:26:00,
2013-12-05 18:31:00,68.4,64.0,30.08,ESE,116,0.0,2.0,86,0.00,,,0.00,0.0,meteohub,2013-12-05 23:31:00,
2013-12-05 18:36:00,68.2,63.9,30.08,ESE,116,0.0,1.0,86,0.00,,,0.00,0.0,meteohub,2013-12-05 23:36:00,
2013-12-05 18:41:00,68.2,63.9,30.08,ESE,119,0.0,1.0,86,0.00,,,0.00,0.0,meteohub,2013-12-05 23:41:00,
2013-12-05 18:46:00,68.2,63.9,30.08,SE,141,0.0,1.0,86,0.00,,,0.00,0.0,meteohub,2013-12-05 23:46:00,
2013-12-05 18:51:00,68.2,63.9,30.08,SE,142,0.0,5.0,86,0.00,,,0.00,0.0,meteohub,2013-12-05 23:51:00,
2013-12-05 18:56:00,68.4,63.7,30.08,SSE,160,1.0,5.0,85,0.00,,,0.00,0.0,meteohub,2013-12-05 23:56:00,
2013-12-05 19:01:00,68.5,63.5,30.08,SSE,156,2.0,5.0,84,0.00,,,0.00,0.0,meteohub,2013-12-06 00:01:00,
2013-12-05 19:06:00,68.7,63.7,30.08,East,98,0.0,5.0,84,0.00,,,0.00,0.0,meteohub,2013-12-06 00:06:00,
2013-12-05 19:11:00,68.7,63.7,30.08,East,98,1.0,4.0,84,0.00,,,0.00,0.0,meteohub,2013-12-06 00:11:00,
2013-12-05 19:16:00,68.5,63.5,30.08,East,101,0.0,4.0,84,0.00,,,0.00,0.0,meteohub,2013-12-06 00:16:00,
2013-12-05 19:21:00,68.5,63.5,30.08,East,101,0.0,3.0,84,0.00,,,0.00,0.0,meteohub,2013-12-06 00:21:00,
2013-12-05 19:26:00,68.4,63.3,30.08,ESE,109,0.0,3.0,84,0.00,,,0.00,0.0,meteohub,2013-12-06 00:26:00,
2013-12-05 19:31:00,68.2,63.1,30.08,ESE,109,0.0,2.0,84,0.00,,,0.00,0.0,meteohub,2013-12-06 00:31:00,
2013-12-05 19:36:00,68.0,63.3,30.08,ESE,109,0.0,2.0,85,0.00,,,0.00,0.0,meteohub,2013-12-06 00:36:00,
2013-12-05 19:41:00,67.8,63.5,30.08,ESE,109,0.0,2.0,86,0.00,,,0.00,0.0,meteohub,2013-12-06 00:41:00,
2013-12-05 19:46:00,67.6,63.3,30.09,ESE,109,0.0,1.0,86,0.00,,,0.00,0.0,meteohub,2013-12-06 00:46:00,
2013-12-05 19:51:00,67.6,63.3,30.09,ESE,109,0.0,1.0,86,0.00,,,0.00,0.0,meteohub,2013-12-06 00:51:00,
2013-12-05 19:56:00,67.6,63.3,30.09,ESE,109,0.0,1.0,86,0.00,,,0.00,0.0,meteohub,2013-12-06 00:56:00,
2013-12-05 20:01:00,67.5,63.1,30.09,ESE,109,0.0,1.0,86,0.00,,,0.00,0.0,meteohub,2013-12-06 01:01:00,
2013-12-05 20:06:00,67.5,63.5,30.09,ESE,109,0.0,2.0,87,0.00,,,0.00,0.0,meteohub,2013-12-06 01:06:00,
2013-12-05 20:11:00,67.3,63.3,30.09,ESE,109,1.0,2.0,87,0.00,,,0.00,0.0,meteohub,2013-12-06 01:11:00,
2013-12-05 20:16:00,67.3,63.7,30.09,SE,140,4.0,4.0,88,0.00,,,0.00,0.0,meteohub,2013-12-06 01:16:00,
2013-12-05 20:21:00,67.5,63.9,30.09,SE,140,0.0,5.0,88,0.00,,,0.00,0.0,meteohub,2013-12-06 01:21:00,
2013-12-05 20:26:00,67.5,63.9,30.09,SE,140,0.0,5.0,88,0.00,,,0.00,0.0,meteohub,2013-12-06 01:26:00,
2013-12-05 20:31:00,67.5,63.9,30.09,SE,145,0.0,5.0,88,0.00,,,0.00,0.0,meteohub,2013-12-06 01:31:00,
2013-12-05 20:36:00,67.5,64.0,30.09,ESE,102,0.0,3.0,89,0.00,,,0.00,0.0,meteohub,2013-12-06 01:36:00,
2013-12-05 20:41:00,67.5,64.0,30.09,ESE,102,0.0,3.0,89,0.00,,,0.00,0.0,meteohub,2013-12-06 01:41:00,
2013-12-05 20:46:00,67.8,64.4,30.09,SE,142,0.0,3.0,89,0.00,,,0.00,0.0,meteohub,2013-12-06 01:46:00,
2013-12-05 20:51:00,67.8,64.4,30.09,SE,137,4.0,5.0,89,0.00,,,0.00,0.0,meteohub,2013-12-06 01:51:00,
2013-12-05 20:56:00,68.4,64.6,30.09,SSE,157,0.0,5.0,88,0.00,,,0.00,0.0,meteohub,2013-12-06 01:56:00,
2013-12-05 21:01:00,68.5,64.8,30.09,SSW,196,1.0,5.0,88,0.00,,,0.00,0.0,meteohub,2013-12-06 02:01:00,
2013-12-05 21:06:00,68.5,64.6,30.09,SSW,196,1.0,5.0,87,0.00,,,0.00,0.0,meteohub,2013-12-06 02:06:00,
2013-12-05 21:11:00,68.7,64.9,30.09,South,171,0.0,5.0,88,0.00,,,0.00,0.0,meteohub,2013-12-06 02:11:00,
2013-12-05 21:16:00,68.7,64.8,30.09,South,188,1.0,5.0,87,0.00,,,0.00,0.0,meteohub,2013-12-06 02:16:00,
2013-12-05 21:21:00,68.7,64.8,30.09,South,171,2.0,5.0,87,0.00,,,0.00,0.0,meteohub,2013-12-06 02:21:00,
2013-12-05 21:26:00,68.7,64.8,30.09,SSE,163,1.0,5.0,87,0.00,,,0.00,0.0,meteohub,2013-12-06 02:26:00,
2013-12-05 21:31:00,68.9,64.9,30.09,SSE,151,3.0,4.0,87,0.00,,,0.00,0.0,meteohub,2013-12-06 02:31:00,
2013-12-05 21:36:00,68.9,64.9,30.09,SSE,157,0.0,4.0,87,0.00,,,0.00,0.0,meteohub,2013-12-06 02:36:00,
2013-12-05 21:41:00,68.9,64.9,30.09,SE,140,1.0,4.0,87,0.00,,,0.00,0.0,meteohub,2013-12-06 02:41:00,
2013-12-05 21:46:00,69.1,65.1,30.09,SSE,152,5.0,5.0,87,0.00,,,0.00,0.0,meteohub,2013-12-06 02:46:00,
2013-12-05 21:51:00,69.3,65.3,30.09,SSE,155,0.0,9.0,87,0.00,,,0.00,0.0,meteohub,2013-12-06 02:51:00,
2013-12-05 21:56:00,69.3,65.3,30.09,South,184,0.0,9.0,87,0.00,,,0.00,0.0,meteohub,2013-12-06 02:56:00,
2013-12-05 22:01:00,69.4,65.5,30.09,SE,138,1.0,9.0,87,0.00,,,0.00,0.0,meteohub,2013-12-06 03:01:00,
2013-12-05 22:06:00,69.6,65.3,30.09,SSE,148,0.0,7.0,86,0.00,,,0.00,0.0,meteohub,2013-12-06 03:06:00,
2013-12-05 22:11:00,69.6,65.3,30.09,SE,142,2.0,7.0,86,0.00,,,0.00,0.0,meteohub,2013-12-06 03:11:00,
2013-12-05 22:16:00,69.8,65.5,30.09,South,186,4.0,7.0,86,0.00,,,0.00,0.0,meteohub,2013-12-06 03:16:00,
2013-12-05 22:21:00,69.6,65.3,30.09,SSW,209,2.0,7.0,86,0.00,,,0.00,0.0,meteohub,2013-12-06 03:21:00,
2013-12-05 22:26:00,69.6,65.3,30.10,SE,130,0.0,7.0,86,0.00,,,0.00,0.0,meteohub,2013-12-06 03:26:00,
2013-12-05 22:31:00,69.6,65.3,30.10,South,172,0.0,7.0,86,0.00,,,0.00,0.0,meteohub,2013-12-06 03:31:00,
2013-12-05 22:36:00,69.6,65.3,30.10,SSE,157,0.0,8.0,86,0.00,,,0.00,0.0,meteohub,2013-12-06 03:36:00,
2013-12-05 22:41:00,69.4,65.1,30.10,ESE,118,0.0,8.0,86,0.00,,,0.00,0.0,meteohub,2013-12-06 03:41:00,
2013-12-05 22:46:00,69.4,65.1,30.10,SE,145,2.0,8.0,86,0.00,,,0.00,0.0,meteohub,2013-12-06 03:46:00,
2013-12-05 22:51:00,69.4,65.1,30.10,SE,146,0.0,5.0,86,0.00,,,0.00,0.0,meteohub,2013-12-06 03:51:00,
2013-12-05 22:56:00,69.3,65.3,30.10,SE,146,0.0,5.0,87,0.00,,,0.00,0.0,meteohub,2013-12-06 03:56:00,
2013-12-05 23:01:00,69.3,65.3,30.11,SE,146,0.0,4.0,87,0.00,,,0.00,0.0,meteohub,2013-12-06 04:01:00,
2013-12-05 23:06:00,69.1,65.1,30.11,SW,214,2.0,4.0,87,0.00,,,0.00,0.0,meteohub,2013-12-06 04:06:00,
2013-12-05 23:11:00,69.1,65.1,30.11,SSE,150,0.0,4.0,87,0.00,,,0.00,0.0,meteohub,2013-12-06 04:11:00,
2013-12-05 23:16:00,68.9,64.9,30.10,SSE,150,3.0,4.0,87,0.00,,,0.00,0.0,meteohub,2013-12-06 04:16:00,
2013-12-05 23:22:00,68.7,64.9,30.11,South,180,0.0,4.0,88,0.00,,,0.00,0.0,meteohub,2013-12-06 04:22:00,
2013-12-05 23:27:00,68.9,65.1,30.11,SSE,153,0.0,4.0,88,0.00,,,0.00,0.0,meteohub,2013-12-06 04:27:00,
2013-12-05 23:32:00,68.9,65.1,30.11,South,187,0.0,4.0,88,0.00,,,0.00,0.0,meteohub,2013-12-06 04:32:00,
2013-12-05 23:37:00,68.9,65.1,30.11,South,179,2.0,4.0,88,0.00,,,0.00,0.0,meteohub,2013-12-06 04:37:00,
2013-12-05 23:42:00,68.7,64.9,30.10,South,179,0.0,4.0,88,0.00,,,0.00,0.0,meteohub,2013-12-06 04:42:00,
2013-12-05 23:47:00,68.9,65.1,30.10,SSE,161,0.0,6.0,88,0.00,,,0.00,0.0,meteohub,2013-12-06 04:47:00,
2013-12-05 23:52:00,68.7,64.9,30.10,SSE,150,4.0,6.0,88,0.00,,,0.00,0.0,meteohub,2013-12-06 04:52:00,
2013-12-05 23:56:00,68.7,64.9,30.10,SE,144,0.0,6.0,88,0.00,,,0.00,0.0,meteohub,2013-12-06 04:56:00,